createdAt,value
2019-05-28T00:00:01.613Z,1.300000
2019-05-28T00:02:33.019Z,1.300000
2019-05-28T00:05:03.334Z,1.100000
2019-05-28T00:07:33.671Z,1.100000
2019-05-28T00:10:04.045Z,0.900000
2019-05-28T00:12:34.426Z,0.900000
2019-05-28T00:15:04.747Z,1.300000
2019-05-28T00:17:35.249Z,1.300000
2019-05-28T00:20:05.676Z,1.100000
2019-05-28T00:22:36.111Z,1.100000
2019-05-28T00:25:06.606Z,0.800000
2019-05-28T00:27:36.947Z,0.800000
2019-05-28T00:30:19.004Z,0.900000
2019-05-28T00:32:49.934Z,0.900000
2019-05-28T00:35:20.461Z,0.800000
2019-05-28T00:37:50.880Z,0.800000
2019-05-28T00:40:21.247Z,1.000000
2019-05-28T00:42:51.601Z,1.000000
2019-05-28T00:45:21.828Z,1.000000
2019-05-28T00:47:52.143Z,1.000000
2019-05-28T00:50:22.480Z,1.100000
2019-05-28T00:52:52.990Z,1.100000
2019-05-28T00:55:23.338Z,1.000000
2019-05-28T00:57:53.631Z,1.000000
2019-05-28T01:00:36.601Z,1.300000
2019-05-28T01:03:07.511Z,1.300000
2019-05-28T01:05:37.757Z,1.100000
2019-05-28T01:08:08.188Z,1.100000
2019-05-28T01:10:38.612Z,1.100000
2019-05-28T01:13:08.923Z,1.100000
2019-05-28T01:15:39.219Z,1.200000
2019-05-28T01:18:09.545Z,1.200000
2019-05-28T01:20:39.949Z,1.400000
2019-05-28T01:23:10.313Z,1.400000
2019-05-28T01:25:40.673Z,0.900000
2019-05-28T01:28:11.170Z,0.900000
2019-05-28T01:30:54.747Z,0.800000
2019-05-28T01:33:27.922Z,0.800000
2019-05-28T01:35:58.118Z,1.000000
2019-05-28T01:38:28.429Z,1.000000
2019-05-28T01:40:58.724Z,1.500000
2019-05-28T01:43:29.113Z,1.500000
2019-05-28T01:45:59.415Z,1.300000
2019-05-28T01:48:29.707Z,1.300000
2019-05-28T01:51:00.024Z,1.700000
2019-05-28T01:53:30.540Z,1.700000
2019-05-28T01:56:00.906Z,1.500000
2019-05-28T01:58:31.278Z,1.500000
2019-05-28T02:01:12.156Z,1.500000
2019-05-28T02:03:43.433Z,1.500000
2019-05-28T02:06:18.863Z,1.100000
2019-05-28T02:08:49.245Z,1.100000
2019-05-28T02:11:19.532Z,0.700000
2019-05-28T02:13:51.118Z,0.700000
2019-05-28T02:16:21.333Z,1.100000
2019-05-28T02:18:51.746Z,1.100000
2019-05-28T02:21:22.195Z,0.800000
2019-05-28T02:23:52.576Z,0.800000
2019-05-28T02:26:23.065Z,0.900000
2019-05-28T02:28:53.521Z,0.900000
2019-05-28T02:31:27.761Z,0.800000
2019-05-28T02:33:58.617Z,0.800000
2019-05-28T02:36:28.970Z,1.300000
2019-05-28T02:38:59.348Z,1.300000
2019-05-28T02:41:29.627Z,1.200000
2019-05-28T02:44:00.015Z,1.200000
2019-05-28T02:46:30.396Z,1.100000
2019-05-28T02:49:00.762Z,1.100000
2019-05-28T02:51:31.139Z,1.000000
2019-05-28T02:54:01.507Z,1.000000
2019-05-28T02:56:31.807Z,1.000000
2019-05-28T02:59:02.251Z,1.000000
2019-05-28T03:01:43.420Z,0.900000
2019-05-28T03:04:14.966Z,1.100000
2019-05-28T03:06:45.245Z,1.100000
2019-05-28T03:09:15.631Z,0.700000
2019-05-28T03:11:45.913Z,0.700000
2019-05-28T03:14:16.212Z,1.200000
2019-05-28T03:16:46.761Z,1.200000
2019-05-28T03:19:17.172Z,1.200000
2019-05-28T03:21:47.549Z,1.200000
2019-05-28T03:24:17.829Z,1.100000
2019-05-28T03:26:48.242Z,1.100000
2019-05-28T03:29:18.629Z,1.000000
2019-05-28T03:32:07.254Z,1.000000
2019-05-28T03:34:42.083Z,1.100000
2019-05-28T03:37:12.755Z,1.100000
2019-05-28T03:39:43.179Z,1.200000
2019-05-28T03:42:13.432Z,1.200000
2019-05-28T03:44:43.752Z,1.100000
2019-05-28T03:47:14.059Z,1.100000
2019-05-28T03:49:44.428Z,1.100000
2019-05-28T03:52:14.728Z,1.100000
2019-05-28T03:54:45.094Z,1.000000
2019-05-28T03:57:15.479Z,1.000000
2019-05-28T03:59:45.869Z,1.300000
2019-05-28T04:02:23.492Z,1.300000
2019-05-28T04:04:54.441Z,1.000000
2019-05-28T04:07:24.823Z,1.000000
2019-05-28T04:09:55.319Z,1.000000
2019-05-28T04:12:25.723Z,1.000000
2019-05-28T04:14:56.083Z,0.900000
2019-05-28T04:17:26.365Z,0.900000
2019-05-28T04:19:57.145Z,1.100000
2019-05-28T04:22:28.710Z,1.100000
2019-05-28T04:24:59.010Z,1.000000
2019-05-28T04:27:29.346Z,1.000000
2019-05-28T04:29:59.577Z,1.300000
2019-05-28T04:32:39.929Z,1.300000
2019-05-28T04:35:11.242Z,1.000000
2019-05-28T04:37:41.529Z,1.000000
2019-05-28T04:40:11.827Z,0.800000
2019-05-28T04:42:42.151Z,0.800000
2019-05-28T04:45:12.537Z,1.000000
2019-05-28T04:47:42.956Z,1.000000
2019-05-28T04:50:13.345Z,1.200000
2019-05-28T04:52:43.649Z,1.200000
2019-05-28T04:55:14.942Z,1.300000
2019-05-28T04:57:45.247Z,1.300000
2019-05-28T05:00:15.560Z,1.300000
2019-05-28T05:02:58.553Z,1.300000
2019-05-28T05:05:30.108Z,0.900000
2019-05-28T05:08:00.483Z,0.900000
2019-05-28T05:10:30.988Z,1.000000
2019-05-28T05:13:01.274Z,1.000000
2019-05-28T05:15:31.652Z,0.800000
2019-05-28T05:18:01.899Z,0.800000
2019-05-28T05:20:32.318Z,0.800000
2019-05-28T05:23:02.659Z,0.800000
2019-05-28T05:25:32.986Z,1.100000
2019-05-28T05:28:03.432Z,1.100000
2019-05-28T05:30:33.852Z,1.100000
2019-05-28T05:33:19.318Z,1.100000
2019-05-28T05:35:50.928Z,0.800000
2019-05-28T05:38:21.394Z,0.800000
2019-05-28T05:40:51.969Z,0.700000
2019-05-28T05:43:22.811Z,0.700000
2019-05-28T05:45:53.123Z,0.700000
2019-05-28T05:48:23.550Z,0.700000
2019-05-28T05:50:53.903Z,0.800000
2019-05-28T05:53:24.217Z,0.800000
2019-05-28T05:55:54.727Z,0.600000
2019-05-28T05:58:25.047Z,0.600000
2019-05-28T06:00:55.491Z,0.900000
2019-05-28T06:03:39.740Z,0.900000
2019-05-28T06:06:10.577Z,1.100000
2019-05-28T06:08:40.929Z,0.600000
2019-05-28T06:11:11.261Z,0.600000
2019-05-28T06:13:41.589Z,0.700000
2019-05-28T06:16:11.918Z,0.700000
2019-05-28T06:18:42.562Z,0.800000
2019-05-28T06:21:16.465Z,0.800000
2019-05-28T06:23:49.030Z,0.800000
2019-05-28T06:26:19.342Z,0.800000
2019-05-28T06:28:49.780Z,1.000000
2019-05-28T06:31:20.172Z,1.000000
2019-05-28T06:33:56.602Z,0.900000
2019-05-28T06:36:28.249Z,0.900000
2019-05-28T06:38:58.582Z,0.900000
2019-05-28T06:41:28.928Z,0.900000
2019-05-28T06:43:59.230Z,0.700000
2019-05-28T06:46:29.587Z,0.700000
2019-05-28T06:48:59.921Z,0.700000
2019-05-28T06:51:30.263Z,0.700000
2019-05-28T06:54:00.783Z,0.700000
2019-05-28T06:56:31.128Z,0.700000
2019-05-28T06:59:01.629Z,0.900000
2019-05-28T07:01:31.994Z,0.900000
2019-05-28T07:04:13.393Z,0.800000
2019-05-28T07:06:44.546Z,0.800000
2019-05-28T07:09:14.908Z,1.100000
2019-05-28T07:11:45.199Z,1.100000
2019-05-28T07:14:15.626Z,0.800000
2019-05-28T07:16:53.086Z,0.800000
2019-05-28T07:19:25.161Z,0.700000
2019-05-28T07:21:55.708Z,0.700000
2019-05-28T07:24:26.131Z,0.900000
2019-05-28T07:26:56.634Z,0.900000
2019-05-28T07:29:27.071Z,0.800000
2019-05-28T07:31:57.436Z,0.800000
2019-05-28T07:34:30.916Z,0.700000
2019-05-28T07:37:01.717Z,0.700000
2019-05-28T07:39:32.174Z,0.700000
2019-05-28T07:42:02.565Z,0.700000
2019-05-28T07:44:32.875Z,0.800000
2019-05-28T07:47:03.374Z,0.800000
2019-05-28T07:49:33.685Z,1.000000
2019-05-28T07:52:03.985Z,1.000000
2019-05-28T07:54:34.304Z,0.900000
2019-05-28T07:57:04.658Z,0.900000
2019-05-28T07:59:35.154Z,0.700000
2019-05-28T08:02:05.403Z,0.700000
2019-05-28T08:04:46.715Z,0.600000
2019-05-28T08:07:18.266Z,0.600000
2019-05-28T08:09:49.337Z,0.600000
2019-05-28T08:12:21.140Z,0.600000
2019-05-28T08:14:51.892Z,0.900000
2019-05-28T08:17:22.401Z,0.900000
2019-05-28T08:19:57.738Z,1.100000
2019-05-28T08:22:41.769Z,1.100000
2019-05-28T08:25:27.201Z,1.100000
2019-05-28T08:28:19.670Z,0.600000
2019-05-28T08:30:50.809Z,0.600000
2019-05-28T08:33:21.341Z,0.700000
2019-05-28T08:35:51.925Z,0.700000
2019-05-28T08:38:22.359Z,0.500000
2019-05-28T08:40:52.620Z,0.500000
2019-05-28T08:43:23.196Z,1.100000
2019-05-28T08:45:53.523Z,1.100000
2019-05-28T08:48:23.939Z,0.600000
2019-05-28T08:50:54.339Z,0.600000
2019-05-28T08:53:24.829Z,0.700000
2019-05-28T08:55:55.187Z,0.700000
2019-05-28T08:58:25.543Z,0.900000
2019-05-28T09:00:55.890Z,0.900000
2019-05-28T09:03:26.148Z,0.900000
2019-05-28T09:05:56.539Z,0.900000
2019-05-28T09:08:38.432Z,0.800000
2019-05-28T09:11:10.582Z,0.800000
2019-05-28T09:13:41.199Z,0.500000
2019-05-28T09:16:11.460Z,0.500000
2019-05-28T09:18:41.870Z,0.500000
2019-05-28T09:21:12.207Z,0.500000
2019-05-28T09:23:42.720Z,0.500000
2019-05-28T09:26:13.082Z,0.500000
2019-05-28T09:28:43.659Z,0.600000
2019-05-28T09:31:14.168Z,0.600000
2019-05-28T09:33:44.490Z,0.500000
2019-05-28T09:36:15.034Z,0.500000
2019-05-28T09:38:45.859Z,0.500000
2019-05-28T09:41:16.437Z,0.500000
2019-05-28T09:43:46.752Z,0.500000
2019-05-28T09:46:17.383Z,0.500000
2019-05-28T09:48:47.718Z,0.900000
2019-05-28T09:51:18.081Z,0.900000
2019-05-28T09:53:48.422Z,0.700000
2019-05-28T09:56:18.799Z,0.700000
2019-05-28T09:58:49.265Z,0.800000
2019-05-28T10:01:19.538Z,0.800000
2019-05-28T10:03:49.925Z,0.900000
2019-05-28T10:06:20.208Z,0.900000
2019-05-28T10:08:50.798Z,0.900000
2019-05-28T10:11:21.252Z,0.900000
2019-05-28T10:13:51.659Z,0.900000
2019-05-28T10:16:22.032Z,0.900000
2019-05-28T10:18:52.401Z,0.700000
2019-05-28T10:21:27.834Z,0.700000
2019-05-28T10:24:03.192Z,0.600000
2019-05-28T10:26:33.559Z,0.600000
2019-05-28T10:29:03.841Z,0.600000
2019-05-28T10:31:34.227Z,0.600000
2019-05-28T10:34:04.781Z,0.600000
2019-05-28T10:36:37.201Z,0.600000
2019-05-28T10:39:08.392Z,0.900000
2019-05-28T10:41:38.683Z,0.900000
2019-05-28T10:44:09.222Z,0.600000
2019-05-28T10:46:39.750Z,0.600000
2019-05-28T10:49:10.164Z,0.900000
2019-05-28T10:51:45.673Z,0.900000
2019-05-28T10:54:15.991Z,0.800000
2019-05-28T10:56:46.311Z,0.800000
2019-05-28T10:59:16.611Z,1.000000
2019-05-28T11:01:52.178Z,1.000000
2019-05-28T11:04:23.054Z,0.600000
2019-05-28T11:06:53.355Z,0.600000
2019-05-28T11:09:23.801Z,0.800000
2019-05-28T11:11:54.143Z,0.800000
2019-05-28T11:14:24.541Z,1.000000
2019-05-28T11:16:59.989Z,1.000000
2019-05-28T11:19:30.424Z,0.600000
2019-05-28T11:22:00.741Z,0.600000
2019-05-28T11:24:31.064Z,0.800000
2019-05-28T11:27:01.340Z,0.800000
2019-05-28T11:29:31.803Z,0.700000
2019-05-28T11:32:02.211Z,0.700000
2019-05-28T11:34:37.765Z,0.500000
2019-05-28T11:37:13.103Z,0.500000
2019-05-28T11:39:43.451Z,0.600000
2019-05-28T11:42:13.808Z,0.600000
2019-05-28T11:44:44.401Z,1.000000
2019-05-28T11:47:14.731Z,1.000000
2019-05-28T11:49:50.315Z,0.600000
2019-05-28T11:52:25.750Z,0.600000
2019-05-28T11:54:56.079Z,0.500000
2019-05-28T11:57:26.438Z,0.500000
2019-05-28T12:00:01.934Z,0.500000
2019-05-28T12:02:32.222Z,0.500000
2019-05-28T12:05:02.677Z,0.700000
2019-05-28T12:07:33.159Z,0.700000
2019-05-28T12:10:03.718Z,0.700000
2019-05-28T12:12:34.151Z,0.700000
2019-05-28T12:15:04.511Z,0.800000
2019-05-28T12:17:42.513Z,0.800000
2019-05-28T12:20:14.558Z,0.700000
2019-05-28T12:22:44.897Z,0.600000
2019-05-28T12:25:15.238Z,0.600000
2019-05-28T12:27:45.711Z,0.400000
2019-05-28T12:30:18.519Z,0.400000
2019-05-28T12:32:49.380Z,0.800000
2019-05-28T12:35:28.391Z,0.800000
2019-05-28T12:38:00.303Z,0.600000
2019-05-28T12:40:46.545Z,0.600000
2019-05-28T12:43:17.969Z,0.500000
2019-05-28T12:45:48.228Z,0.500000
2019-05-28T12:48:18.668Z,0.600000
2019-05-28T12:50:48.941Z,0.600000
2019-05-28T12:53:20.384Z,0.500000
2019-05-28T12:55:50.760Z,0.500000
2019-05-28T12:58:21.295Z,0.700000
2019-05-28T13:00:51.675Z,0.700000
2019-05-28T13:03:21.967Z,0.600000
2019-05-28T13:05:52.331Z,0.600000
2019-05-28T13:08:22.600Z,0.700000
2019-05-28T13:10:53.115Z,0.700000
2019-05-28T13:13:23.552Z,0.400000
2019-05-28T13:15:53.921Z,0.400000
2019-05-28T13:18:24.315Z,0.600000
2019-05-28T13:20:54.657Z,0.600000
2019-05-28T13:23:25.138Z,0.600000
2019-05-28T13:25:57.662Z,0.600000
2019-05-28T13:28:28.073Z,1.100000
2019-05-28T13:30:58.742Z,1.100000
2019-05-28T13:33:29.059Z,0.700000
2019-05-28T13:35:59.554Z,0.700000
2019-05-28T13:38:29.843Z,0.800000
2019-05-28T13:41:00.292Z,0.800000
2019-05-28T13:43:30.637Z,0.700000
2019-05-28T13:46:00.998Z,0.700000
2019-05-28T13:48:31.337Z,0.900000
2019-05-28T13:51:01.730Z,0.900000
2019-05-28T13:53:32.458Z,1.000000
2019-05-28T13:56:02.908Z,1.000000
2019-05-28T13:58:33.131Z,0.800000
2019-05-28T14:01:03.617Z,0.800000
2019-05-28T14:03:33.980Z,0.800000
2019-05-28T14:06:04.330Z,0.800000
2019-05-28T14:08:45.873Z,0.700000
2019-05-28T14:11:19.885Z,0.700000
2019-05-28T14:13:50.183Z,0.900000
2019-05-28T14:16:20.591Z,0.900000
2019-05-28T14:18:50.939Z,0.700000
2019-05-28T14:21:21.268Z,0.700000
2019-05-28T14:23:51.655Z,1.200000
2019-05-28T14:26:22.074Z,1.200000
2019-05-28T14:28:57.541Z,0.700000
2019-05-28T14:31:32.943Z,0.700000
2019-05-28T14:34:03.193Z,0.900000
2019-05-28T14:36:33.500Z,0.900000
2019-05-28T14:39:04.211Z,1.000000
2019-05-28T14:41:34.976Z,1.000000
2019-05-28T14:44:05.333Z,0.600000
2019-05-28T14:46:35.816Z,0.600000
2019-05-28T14:49:07.954Z,0.900000
2019-05-28T14:51:38.623Z,0.900000
2019-05-28T14:54:09.027Z,0.800000
2019-05-28T14:56:39.244Z,0.800000
2019-05-28T14:59:09.617Z,0.600000
2019-05-28T15:01:39.915Z,0.600000
2019-05-28T15:04:10.325Z,0.400000
2019-05-28T15:06:40.856Z,0.400000
2019-05-28T15:09:21.054Z,0.500000
2019-05-28T15:11:52.049Z,0.500000
2019-05-28T15:14:22.464Z,0.500000
2019-05-28T15:16:52.837Z,0.500000
2019-05-28T15:19:23.347Z,0.600000
2019-05-28T15:21:53.846Z,0.600000
2019-05-28T15:24:24.242Z,0.600000
2019-05-28T15:26:54.619Z,0.600000
2019-05-28T15:29:24.902Z,0.600000
2019-05-28T15:31:55.332Z,0.600000
2019-05-28T15:34:25.864Z,0.300000
2019-05-28T15:36:56.246Z,0.300000
2019-05-28T15:39:38.959Z,0.600000
2019-05-28T15:42:19.973Z,0.600000
2019-05-28T15:44:51.170Z,0.600000
2019-05-28T15:47:21.598Z,0.600000
2019-05-28T15:49:52.020Z,0.600000
2019-05-28T15:52:22.414Z,0.600000
2019-05-28T15:54:52.676Z,0.600000
2019-05-28T15:57:23.050Z,0.500000
2019-05-28T15:59:53.589Z,0.500000
2019-05-28T16:02:23.994Z,0.400000
2019-05-28T16:04:54.351Z,0.400000
2019-05-28T16:07:25.025Z,0.700000
2019-05-28T16:09:56.765Z,0.700000
2019-05-28T16:12:27.422Z,0.500000
2019-05-28T16:14:57.897Z,0.500000
2019-05-28T16:17:28.433Z,0.800000
2019-05-28T16:19:58.787Z,0.800000
2019-05-28T16:22:31.245Z,0.500000
2019-05-28T16:25:01.633Z,0.500000
2019-05-28T16:27:31.874Z,0.600000
2019-05-28T16:30:02.379Z,0.600000
2019-05-28T16:32:32.730Z,0.400000
2019-05-28T16:35:03.337Z,0.400000
2019-05-28T16:37:33.819Z,0.500000
2019-05-28T16:40:14.902Z,0.500000
2019-05-28T16:42:46.712Z,0.400000
2019-05-28T16:45:17.075Z,0.400000
2019-05-28T16:47:47.399Z,0.400000
2019-05-28T16:50:17.722Z,0.400000
2019-05-28T16:52:48.043Z,0.500000
2019-05-28T16:55:18.378Z,0.500000
2019-05-28T16:57:48.602Z,0.400000
2019-05-28T17:00:18.916Z,0.400000
2019-05-28T17:02:49.233Z,0.400000
2019-05-28T17:05:19.569Z,0.400000
2019-05-28T17:07:49.918Z,0.400000
2019-05-28T17:10:32.541Z,0.400000
2019-05-28T17:13:03.980Z,0.500000
2019-05-28T17:15:34.281Z,0.500000
2019-05-28T17:18:04.599Z,0.400000
2019-05-28T17:20:34.894Z,0.400000
2019-05-28T17:23:05.292Z,0.700000
2019-05-28T17:25:35.821Z,0.700000
2019-05-28T17:28:06.200Z,0.400000
2019-05-28T17:30:36.585Z,0.400000
2019-05-28T17:33:07.110Z,0.600000
2019-05-28T17:35:37.471Z,0.600000
2019-05-28T17:38:07.929Z,0.500000
2019-05-28T17:40:48.638Z,0.500000
2019-05-28T17:43:19.531Z,0.500000
2019-05-28T17:45:50.088Z,0.500000
2019-05-28T17:48:20.486Z,0.500000
2019-05-28T17:50:53.181Z,0.500000
2019-05-28T17:53:23.753Z,0.400000
2019-05-28T17:55:54.238Z,0.400000
2019-05-28T17:58:24.520Z,0.500000
2019-05-28T18:00:54.830Z,0.500000
2019-05-28T18:03:25.184Z,0.600000
2019-05-28T18:06:00.699Z,0.600000
2019-05-28T18:08:31.013Z,0.500000
2019-05-28T18:11:04.656Z,0.500000
2019-05-28T18:13:35.285Z,0.400000
2019-05-28T18:16:05.626Z,0.400000
2019-05-28T18:18:36.099Z,0.400000
2019-05-28T18:21:06.434Z,0.400000
2019-05-28T18:23:36.790Z,0.600000
2019-05-28T18:26:07.241Z,0.600000
2019-05-28T18:28:37.714Z,0.500000
2019-05-28T18:31:08.074Z,0.500000
2019-05-28T18:33:38.460Z,0.600000
2019-05-28T18:36:08.799Z,0.600000
2019-05-28T18:38:43.566Z,0.500000
2019-05-28T18:41:21.616Z,0.500000
2019-05-28T18:43:52.591Z,0.700000
2019-05-28T18:46:23.145Z,0.700000
2019-05-28T18:48:58.495Z,0.400000
2019-05-28T18:51:29.839Z,0.400000
2019-05-28T18:54:00.195Z,0.600000
2019-05-28T18:56:30.571Z,0.600000
2019-05-28T18:59:01.171Z,0.500000
2019-05-28T19:01:31.449Z,0.500000
2019-05-28T19:04:01.821Z,0.600000
2019-05-28T19:06:32.261Z,0.600000
2019-05-28T19:09:02.882Z,0.600000
2019-05-28T19:11:37.879Z,0.600000
2019-05-28T19:14:09.396Z,0.600000
2019-05-28T19:16:39.727Z,0.600000
2019-05-28T19:19:10.173Z,0.700000
2019-05-28T19:21:40.568Z,0.700000
2019-05-28T19:24:11.867Z,0.900000
2019-05-28T19:26:42.212Z,0.900000
2019-05-28T19:29:12.620Z,0.800000
2019-05-28T19:31:43.063Z,0.800000
2019-05-28T19:34:13.331Z,0.800000
2019-05-28T19:36:43.568Z,1.000000
2019-05-28T19:39:13.999Z,1.000000
2019-05-28T19:41:53.918Z,0.900000
2019-05-28T19:44:25.054Z,0.900000
2019-05-28T19:46:55.283Z,0.800000
2019-05-28T19:49:25.620Z,0.800000
2019-05-28T19:51:56.027Z,1.000000
2019-05-28T19:54:26.775Z,1.000000
2019-05-28T19:56:57.356Z,1.200000
2019-05-28T19:59:27.922Z,1.200000
2019-05-28T20:01:58.709Z,1.500000
2019-05-28T20:04:29.162Z,1.500000
2019-05-28T20:06:59.696Z,1.400000
2019-05-28T20:09:30.542Z,1.400000
2019-05-28T20:12:12.254Z,1.500000
2019-05-28T20:14:43.833Z,1.500000
2019-05-28T20:17:14.132Z,1.900000
2019-05-28T20:19:45.292Z,1.900000
2019-05-28T20:22:15.744Z,1.900000
2019-05-28T20:24:46.168Z,1.900000
2019-05-28T20:27:16.539Z,1.900000
2019-05-28T20:29:46.877Z,1.900000
2019-05-28T20:32:17.470Z,1.900000
2019-05-28T20:34:47.904Z,1.900000
2019-05-28T20:37:18.541Z,1.800000
2019-05-28T20:39:48.896Z,1.800000
2019-05-28T20:42:27.151Z,1.300000
2019-05-28T20:44:58.277Z,1.300000
2019-05-28T20:47:28.684Z,1.000000
2019-05-28T20:49:58.992Z,1.000000
2019-05-28T20:52:29.657Z,1.000000
2019-05-28T20:55:00.183Z,1.000000
2019-05-28T20:57:30.575Z,0.900000
2019-05-28T21:00:01.074Z,0.900000
2019-05-28T21:02:32.866Z,0.900000
2019-05-28T21:05:03.531Z,0.900000
2019-05-28T21:07:35.562Z,0.900000
2019-05-28T21:10:06.172Z,0.900000
2019-05-28T21:12:43.744Z,1.000000
2019-05-28T21:15:16.336Z,1.000000
2019-05-28T21:17:48.911Z,1.000000
2019-05-28T21:20:20.212Z,1.000000
2019-05-28T21:22:51.773Z,0.800000
2019-05-28T21:25:22.254Z,0.800000
2019-05-28T21:27:52.693Z,0.800000
2019-05-28T21:30:23.284Z,0.800000
2019-05-28T21:32:54.475Z,1.000000
2019-05-28T21:35:25.087Z,1.000000
2019-05-28T21:37:55.618Z,1.200000
2019-05-28T21:40:26.259Z,1.200000
2019-05-28T21:43:02.060Z,2.600000
2019-05-28T21:45:36.398Z,2.600000
2019-05-28T21:48:06.886Z,3.300000
2019-05-28T21:50:37.147Z,3.300000
2019-05-28T21:53:07.621Z,5.000000
2019-05-28T21:55:37.987Z,5.000000
2019-05-28T21:58:08.157Z,5.200000
2019-05-28T22:00:38.457Z,5.200000
2019-05-28T22:03:08.847Z,6.200000
2019-05-28T22:05:39.217Z,6.200000
2019-05-28T22:08:09.621Z,7.100000
2019-05-28T22:10:39.997Z,7.100000
2019-05-28T22:13:21.331Z,7.900000
2019-05-28T22:15:52.706Z,7.900000
2019-05-28T22:18:22.984Z,8.200000
2019-05-28T22:20:58.309Z,8.200000
2019-05-28T22:23:30.751Z,7.400000
2019-05-28T22:26:00.990Z,7.400000
2019-05-28T22:28:31.376Z,6.000000
2019-05-28T22:31:02.033Z,6.000000
2019-05-28T22:33:32.322Z,4.800000
2019-05-28T22:36:03.475Z,4.800000
2019-05-28T22:38:33.858Z,4.100000
2019-05-28T22:41:04.490Z,4.100000
2019-05-28T22:43:34.932Z,3.500000
2019-05-28T22:46:05.321Z,3.100000
2019-05-28T22:48:35.592Z,3.100000
2019-05-28T22:51:06.013Z,2.600000
2019-05-28T22:53:39.950Z,2.600000
2019-05-28T22:56:10.596Z,2.700000
2019-05-28T22:58:40.949Z,2.700000
2019-05-28T23:01:11.424Z,2.400000
2019-05-28T23:03:41.804Z,2.400000
2019-05-28T23:06:12.154Z,2.300000
2019-05-28T23:08:42.542Z,2.300000
2019-05-28T23:11:12.902Z,2.200000
2019-05-28T23:13:46.904Z,2.200000
2019-05-28T23:16:17.688Z,2.300000
2019-05-28T23:18:48.131Z,2.300000
2019-05-28T23:21:18.580Z,2.300000
2019-05-28T23:23:48.936Z,2.300000
2019-05-28T23:26:19.309Z,2.500000
2019-05-28T23:28:49.568Z,2.500000
2019-05-28T23:31:19.911Z,2.400000
2019-05-28T23:33:50.169Z,2.400000
2019-05-28T23:36:20.502Z,2.800000
2019-05-28T23:38:50.846Z,2.800000
2019-05-28T23:41:22.845Z,2.900000
2019-05-28T23:44:01.562Z,2.900000
2019-05-28T23:46:32.648Z,3.200000
2019-05-28T23:49:04.015Z,3.200000
2019-05-28T23:51:34.445Z,3.300000
2019-05-28T23:54:05.592Z,3.300000
2019-05-28T23:56:36.230Z,3.300000
2019-05-28T23:59:07.625Z,3.300000
